sensor_id;sensor_type;location;lat;lon;timestamp;P1;durP1;ratioP1;P2;durP2;ratioP2
24826;SDS011;12910;57.690;11.974;2022-10-04T00:01:19;12.63;;;1.73;;
24826;SDS011;12910;57.690;11.974;2022-10-04T00:03:48;5.37;;;1.60;;
24826;SDS011;12910;57.690;11.974;2022-10-04T00:06:20;10.47;;;3.53;;
24826;SDS011;12910;57.690;11.974;2022-10-04T00:08:54;10.27;;;1.73;;
24826;SDS011;12910;57.690;11.974;2022-10-04T00:11:42;7.10;;;1.93;;
24826;SDS011;12910;57.690;11.974;2022-10-04T00:14:24;6.57;;;2.00;;
24826;SDS011;12910;57.690;11.974;2022-10-04T00:16:54;3.10;;;1.53;;
24826;SDS011;12910;57.690;11.974;2022-10-04T00:19:38;7.37;;;1.70;;
24826;SDS011;12910;57.690;11.974;2022-10-04T00:24:34;3.77;;;2.10;;
24826;SDS011;12910;57.690;11.974;2022-10-04T00:27:21;6.23;;;1.87;;
24826;SDS011;12910;57.690;11.974;2022-10-04T00:32:28;10.03;;;1.67;;
24826;SDS011;12910;57.690;11.974;2022-10-04T00:35:03;7.40;;;1.97;;
24826;SDS011;12910;57.690;11.974;2022-10-04T00:37:58;6.17;;;1.37;;
24826;SDS011;12910;57.690;11.974;2022-10-04T00:42:57;4.13;;;1.50;;
24826;SDS011;12910;57.690;11.974;2022-10-04T00:48:07;9.27;;;3.30;;
24826;SDS011;12910;57.690;11.974;2022-10-04T00:50:48;6.07;;;2.00;;
24826;SDS011;12910;57.690;11.974;2022-10-04T00:56:16;3.83;;;1.30;;
24826;SDS011;12910;57.690;11.974;2022-10-04T01:01:25;12.80;;;3.17;;
24826;SDS011;12910;57.690;11.974;2022-10-04T01:03:52;30.50;;;3.07;;
24826;SDS011;12910;57.690;11.974;2022-10-04T01:06:20;88.10;;;6.23;;
24826;SDS011;12910;57.690;11.974;2022-10-04T01:08:50;351.10;;;16.53;;
24826;SDS011;12910;57.690;11.974;2022-10-04T01:11:22;181.70;;;11.47;;
24826;SDS011;12910;57.690;11.974;2022-10-04T01:13:54;89.47;;;4.87;;
24826;SDS011;12910;57.690;11.974;2022-10-04T01:16:26;146.50;;;9.57;;
24826;SDS011;12910;57.690;11.974;2022-10-04T01:18:54;126.67;;;7.77;;
24826;SDS011;12910;57.690;11.974;2022-10-04T01:21:24;161.47;;;9.40;;
24826;SDS011;12910;57.690;11.974;2022-10-04T01:28:59;150.87;;;7.40;;
24826;SDS011;12910;57.690;11.974;2022-10-04T01:31:29;117.40;;;7.47;;
24826;SDS011;12910;57.690;11.974;2022-10-04T01:33:57;104.73;;;9.00;;
24826;SDS011;12910;57.690;11.974;2022-10-04T01:36:24;167.60;;;9.27;;
24826;SDS011;12910;57.690;11.974;2022-10-04T01:38:51;84.00;;;6.03;;
24826;SDS011;12910;57.690;11.974;2022-10-04T01:41:18;76.23;;;7.10;;
24826;SDS011;12910;57.690;11.974;2022-10-04T01:43:49;47.13;;;5.97;;
24826;SDS011;12910;57.690;11.974;2022-10-04T01:46:23;63.47;;;5.30;;
24826;SDS011;12910;57.690;11.974;2022-10-04T01:48:53;57.57;;;6.73;;
24826;SDS011;12910;57.690;11.974;2022-10-04T01:51:24;51.33;;;5.43;;
24826;SDS011;12910;57.690;11.974;2022-10-04T01:53:59;45.90;;;5.47;;
24826;SDS011;12910;57.690;11.974;2022-10-04T01:56:33;57.23;;;6.60;;
24826;SDS011;12910;57.690;11.974;2022-10-04T01:59:12;88.83;;;6.80;;
24826;SDS011;12910;57.690;11.974;2022-10-04T02:04:10;25.40;;;5.20;;
24826;SDS011;12910;57.690;11.974;2022-10-04T02:06:40;15.10;;;3.40;;
24826;SDS011;12910;57.690;11.974;2022-10-04T02:09:09;10.23;;;3.97;;
24826;SDS011;12910;57.690;11.974;2022-10-04T02:11:39;12.97;;;3.40;;
24826;SDS011;12910;57.690;11.974;2022-10-04T02:14:14;8.20;;;3.63;;
24826;SDS011;12910;57.690;11.974;2022-10-04T02:16:43;7.97;;;2.93;;
24826;SDS011;12910;57.690;11.974;2022-10-04T02:19:11;7.77;;;3.03;;
24826;SDS011;12910;57.690;11.974;2022-10-04T02:21:38;6.30;;;2.87;;
24826;SDS011;12910;57.690;11.974;2022-10-04T02:24:05;7.43;;;2.50;;
24826;SDS011;12910;57.690;11.974;2022-10-04T02:26:32;6.60;;;2.50;;
24826;SDS011;12910;57.690;11.974;2022-10-04T02:28:58;6.17;;;2.60;;
24826;SDS011;12910;57.690;11.974;2022-10-04T02:31:23;7.73;;;2.67;;
24826;SDS011;12910;57.690;11.974;2022-10-04T02:34:08;6.90;;;2.70;;
24826;SDS011;12910;57.690;11.974;2022-10-04T02:36:34;9.10;;;2.97;;
24826;SDS011;12910;57.690;11.974;2022-10-04T02:39:14;6.60;;;3.03;;
24826;SDS011;12910;57.690;11.974;2022-10-04T02:41:46;6.23;;;2.73;;
24826;SDS011;12910;57.690;11.974;2022-10-04T02:44:27;6.10;;;2.43;;
24826;SDS011;12910;57.690;11.974;2022-10-04T02:47:06;4.53;;;2.63;;
24826;SDS011;12910;57.690;11.974;2022-10-04T02:49:38;5.60;;;2.03;;
24826;SDS011;12910;57.690;11.974;2022-10-04T02:54:50;7.60;;;2.13;;
24826;SDS011;12910;57.690;11.974;2022-10-04T02:57:27;8.10;;;3.43;;
24826;SDS011;12910;57.690;11.974;2022-10-04T03:00:29;15.43;;;2.90;;
24826;SDS011;12910;57.690;11.974;2022-10-04T03:03:08;10.87;;;3.03;;
24826;SDS011;12910;57.690;11.974;2022-10-04T03:05:40;7.23;;;2.43;;
24826;SDS011;12910;57.690;11.974;2022-10-04T03:08:06;13.97;;;2.63;;
24826;SDS011;12910;57.690;11.974;2022-10-04T03:10:32;13.53;;;3.07;;
24826;SDS011;12910;57.690;11.974;2022-10-04T03:12:59;14.43;;;3.30;;
24826;SDS011;12910;57.690;11.974;2022-10-04T03:15:26;15.30;;;2.87;;
24826;SDS011;12910;57.690;11.974;2022-10-04T03:17:51;12.80;;;2.20;;
24826;SDS011;12910;57.690;11.974;2022-10-04T03:20:17;19.33;;;2.33;;
24826;SDS011;12910;57.690;11.974;2022-10-04T03:22:45;18.53;;;2.47;;
24826;SDS011;12910;57.690;11.974;2022-10-04T03:25:16;13.53;;;4.80;;
24826;SDS011;12910;57.690;11.974;2022-10-04T03:27:46;7.83;;;2.40;;
24826;SDS011;12910;57.690;11.974;2022-10-04T03:30:13;12.27;;;2.33;;
24826;SDS011;12910;57.690;11.974;2022-10-04T03:32:40;10.10;;;2.67;;
24826;SDS011;12910;57.690;11.974;2022-10-04T03:35:10;7.97;;;2.47;;
24826;SDS011;12910;57.690;11.974;2022-10-04T03:37:45;8.20;;;2.10;;
24826;SDS011;12910;57.690;11.974;2022-10-04T03:40:10;7.30;;;2.30;;
24826;SDS011;12910;57.690;11.974;2022-10-04T03:42:38;12.40;;;3.50;;
24826;SDS011;12910;57.690;11.974;2022-10-04T03:45:10;12.37;;;2.27;;
24826;SDS011;12910;57.690;11.974;2022-10-04T03:47:41;15.37;;;2.90;;
24826;SDS011;12910;57.690;11.974;2022-10-04T03:50:25;15.57;;;2.50;;
24826;SDS011;12910;57.690;11.974;2022-10-04T03:52:57;14.70;;;2.83;;
24826;SDS011;12910;57.690;11.974;2022-10-04T03:55:32;15.17;;;3.13;;
24826;SDS011;12910;57.690;11.974;2022-10-04T03:58:00;13.47;;;2.50;;
24826;SDS011;12910;57.690;11.974;2022-10-04T04:00:26;12.60;;;2.23;;
24826;SDS011;12910;57.690;11.974;2022-10-04T04:02:59;24.80;;;2.80;;
24826;SDS011;12910;57.690;11.974;2022-10-04T04:05:30;17.97;;;2.53;;
24826;SDS011;12910;57.690;11.974;2022-10-04T04:10:49;14.63;;;2.60;;
24826;SDS011;12910;57.690;11.974;2022-10-04T04:13:26;18.67;;;2.33;;
24826;SDS011;12910;57.690;11.974;2022-10-04T04:15:56;19.50;;;2.33;;
24826;SDS011;12910;57.690;11.974;2022-10-04T04:18:28;11.30;;;2.60;;
24826;SDS011;12910;57.690;11.974;2022-10-04T04:20:58;18.03;;;2.77;;
24826;SDS011;12910;57.690;11.974;2022-10-04T04:23:35;10.83;;;2.60;;
24826;SDS011;12910;57.690;11.974;2022-10-04T04:29:05;6.37;;;2.07;;
24826;SDS011;12910;57.690;11.974;2022-10-04T04:34:15;13.50;;;3.20;;
24826;SDS011;12910;57.690;11.974;2022-10-04T04:37:08;8.73;;;1.87;;
24826;SDS011;12910;57.690;11.974;2022-10-04T04:39:34;14.13;;;2.33;;
24826;SDS011;12910;57.690;11.974;2022-10-04T04:44:34;11.87;;;2.53;;
24826;SDS011;12910;57.690;11.974;2022-10-04T04:47:04;9.13;;;2.37;;
24826;SDS011;12910;57.690;11.974;2022-10-04T04:49:35;12.60;;;2.43;;
24826;SDS011;12910;57.690;11.974;2022-10-04T04:52:04;5.43;;;1.83;;
24826;SDS011;12910;57.690;11.974;2022-10-04T04:54:30;11.20;;;3.20;;
24826;SDS011;12910;57.690;11.974;2022-10-04T04:56:56;10.90;;;2.20;;
24826;SDS011;12910;57.690;11.974;2022-10-04T04:59:22;16.40;;;2.50;;
24826;SDS011;12910;57.690;11.974;2022-10-04T05:01:51;8.03;;;2.00;;
24826;SDS011;12910;57.690;11.974;2022-10-04T05:04:18;13.40;;;2.27;;
24826;SDS011;12910;57.690;11.974;2022-10-04T05:09:34;18.67;;;2.50;;
24826;SDS011;12910;57.690;11.974;2022-10-04T05:12:20;8.03;;;2.13;;
24826;SDS011;12910;57.690;11.974;2022-10-04T05:14:49;18.23;;;2.47;;
24826;SDS011;12910;57.690;11.974;2022-10-04T05:17:20;17.97;;;3.10;;
24826;SDS011;12910;57.690;11.974;2022-10-04T05:19:50;19.73;;;2.43;;
24826;SDS011;12910;57.690;11.974;2022-10-04T05:22:21;5.13;;;2.13;;
24826;SDS011;12910;57.690;11.974;2022-10-04T05:24:53;15.90;;;2.23;;
24826;SDS011;12910;57.690;11.974;2022-10-04T05:41:28;14.03;;;2.43;;
24826;SDS011;12910;57.690;11.974;2022-10-04T05:44:22;15.87;;;3.50;;
24826;SDS011;12910;57.690;11.974;2022-10-04T05:46:56;11.70;;;2.40;;
24826;SDS011;12910;57.690;11.974;2022-10-04T05:49:24;18.17;;;2.53;;
24826;SDS011;12910;57.690;11.974;2022-10-04T05:51:55;19.00;;;2.60;;
24826;SDS011;12910;57.690;11.974;2022-10-04T05:54:26;11.57;;;2.30;;
24826;SDS011;12910;57.690;11.974;2022-10-04T06:05:13;9.00;;;2.23;;
24826;SDS011;12910;57.690;11.974;2022-10-04T06:10:32;13.07;;;2.97;;
24826;SDS011;12910;57.690;11.974;2022-10-04T06:15:52;14.00;;;3.30;;
24826;SDS011;12910;57.690;11.974;2022-10-04T06:21:19;7.43;;;2.10;;
24826;SDS011;12910;57.690;11.974;2022-10-04T06:26:17;13.30;;;2.07;;
24826;SDS011;12910;57.690;11.974;2022-10-04T06:28:52;8.80;;;2.57;;
24826;SDS011;12910;57.690;11.974;2022-10-04T06:56:08;8.93;;;1.90;;
24826;SDS011;12910;57.690;11.974;2022-10-04T07:01:59;18.47;;;3.80;;
24826;SDS011;12910;57.690;11.974;2022-10-04T07:04:37;7.23;;;2.03;;
24826;SDS011;12910;57.690;11.974;2022-10-04T07:07:28;7.93;;;2.80;;
24826;SDS011;12910;57.690;11.974;2022-10-04T07:15:47;9.00;;;3.27;;
24826;SDS011;12910;57.690;11.974;2022-10-04T07:18:22;12.17;;;2.20;;
24826;SDS011;12910;57.690;11.974;2022-10-04T07:20:57;9.37;;;2.53;;
24826;SDS011;12910;57.690;11.974;2022-10-04T07:23:29;6.60;;;2.37;;
24826;SDS011;12910;57.690;11.974;2022-10-04T07:26:01;11.80;;;2.63;;
24826;SDS011;12910;57.690;11.974;2022-10-04T07:28:38;8.50;;;2.53;;
24826;SDS011;12910;57.690;11.974;2022-10-04T07:31:32;17.57;;;3.10;;
24826;SDS011;12910;57.690;11.974;2022-10-04T07:34:09;17.73;;;3.27;;
24826;SDS011;12910;57.690;11.974;2022-10-04T07:36:44;11.87;;;2.90;;
24826;SDS011;12910;57.690;11.974;2022-10-04T07:39:17;8.87;;;3.40;;
24826;SDS011;12910;57.690;11.974;2022-10-04T07:42:08;8.73;;;3.37;;
24826;SDS011;12910;57.690;11.974;2022-10-04T07:44:39;10.20;;;3.23;;
24826;SDS011;12910;57.690;11.974;2022-10-04T07:47:18;13.37;;;2.63;;
24826;SDS011;12910;57.690;11.974;2022-10-04T07:49:46;17.80;;;2.83;;
24826;SDS011;12910;57.690;11.974;2022-10-04T08:03:47;7.53;;;3.13;;
24826;SDS011;12910;57.690;11.974;2022-10-04T08:09:50;11.27;;;2.67;;
24826;SDS011;12910;57.690;11.974;2022-10-04T08:18:20;8.07;;;2.87;;
24826;SDS011;12910;57.690;11.974;2022-10-04T08:21:06;12.73;;;2.27;;
24826;SDS011;12910;57.690;11.974;2022-10-04T08:37:46;8.57;;;2.57;;
24826;SDS011;12910;57.690;11.974;2022-10-04T08:48:47;5.83;;;1.93;;
24826;SDS011;12910;57.690;11.974;2022-10-04T09:10:42;4.40;;;1.30;;
24826;SDS011;12910;57.690;11.974;2022-10-04T09:24:46;10.10;;;3.93;;
24826;SDS011;12910;57.690;11.974;2022-10-04T09:35:45;8.47;;;3.07;;
24826;SDS011;12910;57.690;11.974;2022-10-04T09:41:13;14.57;;;1.93;;
24826;SDS011;12910;57.690;11.974;2022-10-04T09:49:25;6.37;;;2.03;;
24826;SDS011;12910;57.690;11.974;2022-10-04T09:58:15;4.93;;;1.83;;
24826;SDS011;12910;57.690;11.974;2022-10-04T10:00:51;8.10;;;1.90;;
24826;SDS011;12910;57.690;11.974;2022-10-04T10:06:29;2.53;;;1.40;;
24826;SDS011;12910;57.690;11.974;2022-10-04T10:11:37;3.33;;;1.20;;
24826;SDS011;12910;57.690;11.974;2022-10-04T10:17:22;4.50;;;2.13;;
24826;SDS011;12910;57.690;11.974;2022-10-04T10:28:09;5.97;;;1.63;;
24826;SDS011;12910;57.690;11.974;2022-10-04T10:38:44;5.47;;;1.90;;
24826;SDS011;12910;57.690;11.974;2022-10-04T10:41:36;6.97;;;1.80;;
24826;SDS011;12910;57.690;11.974;2022-10-04T10:47:06;8.83;;;1.53;;
24826;SDS011;12910;57.690;11.974;2022-10-04T10:49:58;5.83;;;1.77;;
24826;SDS011;12910;57.690;11.974;2022-10-04T11:00:34;4.93;;;1.57;;
24826;SDS011;12910;57.690;11.974;2022-10-04T11:03:32;5.93;;;2.20;;
24826;SDS011;12910;57.690;11.974;2022-10-04T11:12:31;4.97;;;2.00;;
24826;SDS011;12910;57.690;11.974;2022-10-04T11:20:53;7.63;;;2.27;;
24826;SDS011;12910;57.690;11.974;2022-10-04T11:29:14;3.23;;;1.37;;
24826;SDS011;12910;57.690;11.974;2022-10-04T11:46:34;3.80;;;2.20;;
24826;SDS011;12910;57.690;11.974;2022-10-04T11:57:42;5.37;;;1.93;;
24826;SDS011;12910;57.690;11.974;2022-10-04T12:00:17;3.20;;;1.80;;
24826;SDS011;12910;57.690;11.974;2022-10-04T12:17:30;6.53;;;1.97;;
24826;SDS011;12910;57.690;11.974;2022-10-04T12:28:34;4.20;;;2.70;;
24826;SDS011;12910;57.690;11.974;2022-10-04T12:31:21;14.77;;;1.97;;
24826;SDS011;12910;57.690;11.974;2022-10-04T12:33:54;3.30;;;1.40;;
24826;SDS011;12910;57.690;11.974;2022-10-04T12:36:28;3.83;;;0.93;;
24826;SDS011;12910;57.690;11.974;2022-10-04T12:46:35;4.83;;;3.40;;
24826;SDS011;12910;57.690;11.974;2022-10-04T13:00:19;4.83;;;1.90;;
24826;SDS011;12910;57.690;11.974;2022-10-04T13:16:55;11.70;;;2.63;;
24826;SDS011;12910;57.690;11.974;2022-10-04T13:19:26;4.57;;;2.77;;
24826;SDS011;12910;57.690;11.974;2022-10-04T13:30:25;8.40;;;2.90;;
24826;SDS011;12910;57.690;11.974;2022-10-04T13:35:51;6.80;;;3.57;;
24826;SDS011;12910;57.690;11.974;2022-10-04T13:38:34;4.97;;;3.37;;
24826;SDS011;12910;57.690;11.974;2022-10-04T13:44:09;9.90;;;4.87;;
24826;SDS011;12910;57.690;11.974;2022-10-04T13:46:56;9.40;;;4.70;;
24826;SDS011;12910;57.690;11.974;2022-10-04T13:55:19;8.57;;;4.40;;
24826;SDS011;12910;57.690;11.974;2022-10-04T14:00:59;10.50;;;4.50;;
24826;SDS011;12910;57.690;11.974;2022-10-04T14:17:39;9.40;;;2.80;;
24826;SDS011;12910;57.690;11.974;2022-10-04T14:48:22;10.27;;;2.20;;
24826;SDS011;12910;57.690;11.974;2022-10-04T15:02:41;9.90;;;2.93;;
24826;SDS011;12910;57.690;11.974;2022-10-04T15:05:24;19.63;;;3.37;;
24826;SDS011;12910;57.690;11.974;2022-10-04T15:13:56;8.50;;;2.40;;
24826;SDS011;12910;57.690;11.974;2022-10-04T15:16:45;6.23;;;2.43;;
24826;SDS011;12910;57.690;11.974;2022-10-04T15:24:26;6.37;;;2.10;;
24826;SDS011;12910;57.690;11.974;2022-10-04T15:27:28;12.43;;;4.23;;
24826;SDS011;12910;57.690;11.974;2022-10-04T15:32:42;5.23;;;1.70;;
24826;SDS011;12910;57.690;11.974;2022-10-04T15:41:34;8.70;;;2.30;;
24826;SDS011;12910;57.690;11.974;2022-10-04T15:55:22;5.97;;;1.37;;
24826;SDS011;12910;57.690;11.974;2022-10-04T16:17:11;4.57;;;1.67;;
24826;SDS011;12910;57.690;11.974;2022-10-04T16:23:20;7.77;;;2.07;;
24826;SDS011;12910;57.690;11.974;2022-10-04T16:25:48;6.57;;;1.70;;
24826;SDS011;12910;57.690;11.974;2022-10-04T16:28:21;8.17;;;1.90;;
24826;SDS011;12910;57.690;11.974;2022-10-04T16:33:36;11.60;;;1.73;;
24826;SDS011;12910;57.690;11.974;2022-10-04T16:36:19;9.47;;;1.73;;
24826;SDS011;12910;57.690;11.974;2022-10-04T16:38:51;10.50;;;2.43;;
24826;SDS011;12910;57.690;11.974;2022-10-04T16:41:40;10.13;;;2.07;;
24826;SDS011;12910;57.690;11.974;2022-10-04T16:46:55;6.53;;;1.50;;
24826;SDS011;12910;57.690;11.974;2022-10-04T16:49:32;9.07;;;2.20;;
24826;SDS011;12910;57.690;11.974;2022-10-04T16:57:24;5.93;;;3.20;;
24826;SDS011;12910;57.690;11.974;2022-10-04T16:59:56;5.20;;;2.53;;
24826;SDS011;12910;57.690;11.974;2022-10-04T17:35:13;13.13;;;4.23;;
24826;SDS011;12910;57.690;11.974;2022-10-04T17:46:49;10.30;;;3.63;;
24826;SDS011;12910;57.690;11.974;2022-10-04T17:52:13;18.33;;;4.30;;
24826;SDS011;12910;57.690;11.974;2022-10-04T17:55:04;15.63;;;4.97;;
24826;SDS011;12910;57.690;11.974;2022-10-04T17:57:52;9.83;;;4.10;;
24826;SDS011;12910;57.690;11.974;2022-10-04T18:00:26;18.27;;;4.80;;
24826;SDS011;12910;57.690;11.974;2022-10-04T18:03:19;15.57;;;4.10;;
24826;SDS011;12910;57.690;11.974;2022-10-04T18:05:51;16.93;;;4.17;;
24826;SDS011;12910;57.690;11.974;2022-10-04T18:08:42;16.90;;;4.13;;
24826;SDS011;12910;57.690;11.974;2022-10-04T18:14:11;13.90;;;4.80;;
24826;SDS011;12910;57.690;11.974;2022-10-04T18:17:06;11.80;;;4.43;;
24826;SDS011;12910;57.690;11.974;2022-10-04T18:22:18;21.63;;;4.97;;
24826;SDS011;12910;57.690;11.974;2022-10-04T18:24:46;21.97;;;5.50;;
24826;SDS011;12910;57.690;11.974;2022-10-04T18:27:26;15.23;;;5.10;;
24826;SDS011;12910;57.690;11.974;2022-10-04T18:34:53;12.90;;;4.97;;
24826;SDS011;12910;57.690;11.974;2022-10-04T18:37:20;11.63;;;4.00;;
24826;SDS011;12910;57.690;11.974;2022-10-04T18:40:01;17.77;;;4.77;;
24826;SDS011;12910;57.690;11.974;2022-10-04T18:42:37;9.03;;;4.33;;
24826;SDS011;12910;57.690;11.974;2022-10-04T18:45:25;14.67;;;5.17;;
24826;SDS011;12910;57.690;11.974;2022-10-04T18:47:51;18.27;;;4.17;;
24826;SDS011;12910;57.690;11.974;2022-10-04T18:52:52;9.07;;;3.47;;
24826;SDS011;12910;57.690;11.974;2022-10-04T18:58:20;23.27;;;7.13;;
24826;SDS011;12910;57.690;11.974;2022-10-04T19:04:13;10.33;;;3.20;;
24826;SDS011;12910;57.690;11.974;2022-10-04T19:06:50;8.23;;;3.13;;
24826;SDS011;12910;57.690;11.974;2022-10-04T19:09:25;8.27;;;2.20;;
24826;SDS011;12910;57.690;11.974;2022-10-04T19:12:04;10.87;;;3.07;;
24826;SDS011;12910;57.690;11.974;2022-10-04T19:17:27;6.93;;;2.67;;
24826;SDS011;12910;57.690;11.974;2022-10-04T19:22:45;6.87;;;2.27;;
24826;SDS011;12910;57.690;11.974;2022-10-04T19:28:30;6.73;;;3.80;;
24826;SDS011;12910;57.690;11.974;2022-10-04T19:34:02;12.73;;;4.17;;
24826;SDS011;12910;57.690;11.974;2022-10-04T19:48:20;4.87;;;2.17;;
24826;SDS011;12910;57.690;11.974;2022-10-04T19:50:52;9.17;;;2.43;;
24826;SDS011;12910;57.690;11.974;2022-10-04T19:53:53;4.20;;;1.70;;
24826;SDS011;12910;57.690;11.974;2022-10-04T19:56:29;13.00;;;2.57;;
24826;SDS011;12910;57.690;11.974;2022-10-04T19:59:04;10.83;;;2.40;;
24826;SDS011;12910;57.690;11.974;2022-10-04T20:01:34;6.03;;;2.17;;
24826;SDS011;12910;57.690;11.974;2022-10-04T20:04:00;11.53;;;1.90;;
24826;SDS011;12910;57.690;11.974;2022-10-04T20:06:49;7.00;;;2.60;;
24826;SDS011;12910;57.690;11.974;2022-10-04T20:09:21;6.40;;;2.20;;
24826;SDS011;12910;57.690;11.974;2022-10-04T20:11:56;8.50;;;1.70;;
24826;SDS011;12910;57.690;11.974;2022-10-04T20:27:03;8.53;;;2.33;;
24826;SDS011;12910;57.690;11.974;2022-10-04T20:34:50;10.30;;;2.00;;
24826;SDS011;12910;57.690;11.974;2022-10-04T20:37:16;8.80;;;1.90;;
24826;SDS011;12910;57.690;11.974;2022-10-04T20:45:19;4.97;;;2.10;;
24826;SDS011;12910;57.690;11.974;2022-10-04T20:47:45;12.50;;;3.20;;
24826;SDS011;12910;57.690;11.974;2022-10-04T20:50:19;6.03;;;2.20;;
24826;SDS011;12910;57.690;11.974;2022-10-04T20:52:46;6.43;;;2.50;;
24826;SDS011;12910;57.690;11.974;2022-10-04T20:55:28;5.77;;;3.00;;
24826;SDS011;12910;57.690;11.974;2022-10-04T20:58:03;6.43;;;1.80;;
24826;SDS011;12910;57.690;11.974;2022-10-04T21:00:54;5.50;;;2.37;;
24826;SDS011;12910;57.690;11.974;2022-10-04T21:03:22;3.93;;;2.23;;
24826;SDS011;12910;57.690;11.974;2022-10-04T21:06:21;5.70;;;2.63;;
24826;SDS011;12910;57.690;11.974;2022-10-04T21:08:40;5.87;;;2.40;;
24826;SDS011;12910;57.690;11.974;2022-10-04T21:11:10;8.97;;;2.53;;
24826;SDS011;12910;57.690;11.974;2022-10-04T21:13:51;7.50;;;2.97;;
24826;SDS011;12910;57.690;11.974;2022-10-04T21:16:40;19.60;;;3.00;;
24826;SDS011;12910;57.690;11.974;2022-10-04T21:27:04;9.13;;;2.33;;
24826;SDS011;12910;57.690;11.974;2022-10-04T21:29:33;2.87;;;2.00;;
24826;SDS011;12910;57.690;11.974;2022-10-04T21:31:59;3.83;;;2.50;;
24826;SDS011;12910;57.690;11.974;2022-10-04T21:34:24;4.37;;;2.57;;
24826;SDS011;12910;57.690;11.974;2022-10-04T21:36:50;7.93;;;2.70;;
24826;SDS011;12910;57.690;11.974;2022-10-04T21:39:16;6.40;;;2.73;;
24826;SDS011;12910;57.690;11.974;2022-10-04T21:41:41;9.67;;;3.53;;
24826;SDS011;12910;57.690;11.974;2022-10-04T21:44:07;4.37;;;3.60;;
24826;SDS011;12910;57.690;11.974;2022-10-04T21:46:33;11.23;;;2.90;;
24826;SDS011;12910;57.690;11.974;2022-10-04T21:48:59;10.87;;;3.27;;
24826;SDS011;12910;57.690;11.974;2022-10-04T21:51:24;8.00;;;3.00;;
24826;SDS011;12910;57.690;11.974;2022-10-04T21:53:50;8.17;;;3.70;;
24826;SDS011;12910;57.690;11.974;2022-10-04T21:56:15;11.37;;;3.20;;
24826;SDS011;12910;57.690;11.974;2022-10-04T21:58:41;6.50;;;3.47;;
24826;SDS011;12910;57.690;11.974;2022-10-04T22:01:06;12.60;;;3.90;;
24826;SDS011;12910;57.690;11.974;2022-10-04T22:03:32;4.60;;;3.43;;
24826;SDS011;12910;57.690;11.974;2022-10-04T22:05:57;4.83;;;3.60;;
24826;SDS011;12910;57.690;11.974;2022-10-04T22:08:23;8.37;;;4.93;;
24826;SDS011;12910;57.690;11.974;2022-10-04T22:10:48;9.50;;;4.70;;
24826;SDS011;12910;57.690;11.974;2022-10-04T22:13:14;12.37;;;4.43;;
24826;SDS011;12910;57.690;11.974;2022-10-04T22:15:39;6.57;;;4.67;;
24826;SDS011;12910;57.690;11.974;2022-10-04T22:18:05;8.53;;;4.37;;
24826;SDS011;12910;57.690;11.974;2022-10-04T22:20:31;8.37;;;4.70;;
24826;SDS011;12910;57.690;11.974;2022-10-04T22:22:56;12.97;;;4.23;;
24826;SDS011;12910;57.690;11.974;2022-10-04T22:25:24;13.13;;;5.00;;
24826;SDS011;12910;57.690;11.974;2022-10-04T22:27:50;12.90;;;4.80;;
24826;SDS011;12910;57.690;11.974;2022-10-04T22:30:27;10.93;;;4.27;;
24826;SDS011;12910;57.690;11.974;2022-10-04T22:32:57;10.57;;;4.93;;
24826;SDS011;12910;57.690;11.974;2022-10-04T22:35:27;5.83;;;4.40;;
24826;SDS011;12910;57.690;11.974;2022-10-04T22:37:55;6.93;;;4.87;;
24826;SDS011;12910;57.690;11.974;2022-10-04T22:40:24;8.50;;;4.77;;
24826;SDS011;12910;57.690;11.974;2022-10-04T22:42:50;13.53;;;4.80;;
24826;SDS011;12910;57.690;11.974;2022-10-04T22:45:19;7.33;;;5.47;;
24826;SDS011;12910;57.690;11.974;2022-10-04T22:47:49;8.57;;;5.13;;
24826;SDS011;12910;57.690;11.974;2022-10-04T22:50:29;8.27;;;4.37;;
24826;SDS011;12910;57.690;11.974;2022-10-04T22:52:57;8.07;;;4.87;;
24826;SDS011;12910;57.690;11.974;2022-10-04T22:55:28;10.03;;;5.13;;
24826;SDS011;12910;57.690;11.974;2022-10-04T22:57:54;7.87;;;5.50;;
24826;SDS011;12910;57.690;11.974;2022-10-04T23:00:19;11.83;;;5.57;;
24826;SDS011;12910;57.690;11.974;2022-10-04T23:02:44;12.57;;;4.80;;
24826;SDS011;12910;57.690;11.974;2022-10-04T23:05:14;17.53;;;6.37;;
24826;SDS011;12910;57.690;11.974;2022-10-04T23:07:42;12.23;;;5.53;;
24826;SDS011;12910;57.690;11.974;2022-10-04T23:10:09;13.40;;;5.87;;
24826;SDS011;12910;57.690;11.974;2022-10-04T23:12:36;15.80;;;6.67;;
24826;SDS011;12910;57.690;11.974;2022-10-04T23:15:03;14.03;;;6.27;;
24826;SDS011;12910;57.690;11.974;2022-10-04T23:17:33;23.10;;;6.33;;
24826;SDS011;12910;57.690;11.974;2022-10-04T23:22:35;14.07;;;6.33;;
24826;SDS011;12910;57.690;11.974;2022-10-04T23:25:01;12.13;;;5.53;;
24826;SDS011;12910;57.690;11.974;2022-10-04T23:27:27;16.97;;;7.40;;
24826;SDS011;12910;57.690;11.974;2022-10-04T23:29:57;15.90;;;6.00;;
24826;SDS011;12910;57.690;11.974;2022-10-04T23:32:26;11.47;;;7.43;;
24826;SDS011;12910;57.690;11.974;2022-10-04T23:34:52;23.33;;;8.23;;
24826;SDS011;12910;57.690;11.974;2022-10-04T23:37:18;14.73;;;7.10;;
24826;SDS011;12910;57.690;11.974;2022-10-04T23:39:47;17.53;;;7.93;;
24826;SDS011;12910;57.690;11.974;2022-10-04T23:44:38;18.83;;;6.53;;
24826;SDS011;12910;57.690;11.974;2022-10-04T23:47:22;11.80;;;7.27;;
24826;SDS011;12910;57.690;11.974;2022-10-04T23:49:55;9.63;;;7.43;;
24826;SDS011;12910;57.690;11.974;2022-10-04T23:52:21;8.37;;;7.50;;
24826;SDS011;12910;57.690;11.974;2022-10-04T23:54:50;14.57;;;8.07;;
24826;SDS011;12910;57.690;11.974;2022-10-04T23:57:19;27.97;;;9.77;;
24826;SDS011;12910;57.690;11.974;2022-10-04T23:59:49;16.47;;;7.20;;
